createdAt,value
2024-02-19T00:01:11.672Z,4.53
2024-02-19T00:04:13.334Z,4.83
2024-02-19T00:07:15.000Z,4.40
2024-02-19T00:10:16.663Z,4.73
2024-02-19T00:13:18.494Z,4.17
2024-02-19T00:16:20.090Z,3.90
2024-02-19T00:19:21.814Z,4.40
2024-02-19T00:22:23.438Z,4.10
2024-02-19T00:25:25.121Z,4.17
2024-02-19T00:28:26.930Z,3.30
2024-02-19T00:31:28.479Z,3.63
2024-02-19T00:34:30.053Z,3.50
2024-02-19T00:37:31.654Z,3.30
2024-02-19T00:40:33.255Z,3.20
2024-02-19T00:43:34.817Z,2.80
2024-02-19T00:46:36.448Z,3.00
2024-02-19T00:49:38.087Z,3.00
2024-02-19T00:52:39.682Z,2.70
2024-02-19T00:55:41.343Z,2.80
2024-02-19T00:58:42.972Z,2.60
2024-02-19T01:01:44.646Z,2.70
2024-02-19T01:04:46.365Z,2.80
2024-02-19T01:07:47.995Z,2.67
2024-02-19T01:10:49.661Z,2.37
2024-02-19T01:13:51.217Z,2.87
2024-02-19T01:16:52.787Z,2.43
2024-02-19T01:19:54.349Z,2.30
2024-02-19T01:22:55.941Z,2.50
2024-02-19T01:25:59.714Z,2.53
2024-02-19T01:29:01.469Z,3.00
2024-02-19T01:32:03.013Z,2.70
2024-02-19T01:35:04.708Z,2.73
2024-02-19T01:38:08.980Z,2.40
2024-02-19T01:41:10.726Z,3.00
2024-02-19T01:44:12.315Z,3.07
2024-02-19T01:47:14.042Z,3.10
2024-02-19T01:50:16.039Z,3.10
2024-02-19T01:53:17.577Z,3.30
2024-02-19T01:56:19.125Z,3.23
2024-02-19T01:59:20.656Z,3.13
2024-02-19T02:02:22.225Z,3.57
2024-02-19T02:05:23.761Z,3.37
2024-02-19T02:08:25.280Z,4.10
2024-02-19T02:11:29.960Z,3.90
2024-02-19T02:14:31.543Z,3.53
2024-02-19T02:17:33.147Z,3.77
2024-02-19T02:20:34.691Z,3.50
2024-02-19T02:23:36.264Z,3.70
2024-02-19T02:26:37.834Z,4.03
2024-02-19T02:29:39.380Z,3.90
2024-02-19T02:32:40.994Z,3.80
2024-02-19T02:35:42.660Z,3.57
2024-02-19T02:38:44.149Z,3.67
2024-02-19T02:41:45.709Z,4.27
2024-02-19T02:44:47.211Z,3.83
2024-02-19T02:47:48.892Z,3.73
2024-02-19T02:50:50.426Z,3.77
2024-02-19T02:53:51.992Z,3.77
2024-02-19T02:56:53.531Z,3.40
2024-02-19T02:59:55.043Z,3.30
2024-02-19T03:02:56.658Z,3.33
2024-02-19T03:05:58.199Z,3.70
2024-02-19T03:08:59.840Z,3.10
2024-02-19T03:12:01.449Z,2.83
2024-02-19T03:15:02.987Z,2.80
2024-02-19T03:18:04.625Z,2.00
2024-02-19T03:21:06.206Z,2.20
2024-02-19T03:24:07.753Z,2.10
2024-02-19T03:27:09.308Z,1.70
2024-02-19T03:30:10.990Z,1.60
2024-02-19T03:33:12.876Z,1.50
2024-02-19T03:36:14.470Z,1.53
2024-02-19T03:39:16.038Z,2.00
2024-02-19T03:42:17.653Z,2.50
2024-02-19T03:45:19.195Z,2.60
2024-02-19T03:48:20.793Z,3.23
2024-02-19T03:51:22.481Z,3.50
2024-02-19T03:54:24.044Z,4.13
2024-02-19T03:57:25.615Z,4.30
2024-02-19T04:00:27.178Z,4.60
2024-02-19T04:03:28.807Z,4.30
2024-02-19T04:06:30.332Z,4.50
2024-02-19T04:09:32.030Z,4.40
2024-02-19T04:12:33.562Z,4.30
2024-02-19T04:15:35.083Z,4.60
2024-02-19T04:18:36.879Z,4.50
2024-02-19T04:21:38.535Z,5.17
2024-02-19T04:24:40.147Z,4.63
2024-02-19T04:27:41.714Z,4.63
2024-02-19T04:30:43.306Z,4.80
2024-02-19T04:33:44.992Z,5.53
2024-02-19T04:36:46.722Z,4.73
2024-02-19T04:39:50.838Z,4.57
2024-02-19T04:42:52.437Z,4.47
2024-02-19T04:45:54.008Z,4.33
2024-02-19T04:48:55.705Z,4.37
2024-02-19T04:51:57.437Z,4.23
2024-02-19T04:54:59.164Z,5.10
2024-02-19T04:58:00.772Z,4.83
2024-02-19T05:01:02.445Z,4.60
2024-02-19T05:04:04.171Z,4.33
2024-02-19T05:07:05.798Z,4.43
2024-02-19T05:10:07.773Z,3.77
2024-02-19T05:13:09.587Z,3.60
2024-02-19T05:16:11.269Z,3.77
2024-02-19T05:19:13.005Z,3.30
2024-02-19T05:22:14.698Z,3.17
2024-02-19T05:25:16.413Z,2.70
2024-02-19T05:28:18.119Z,2.80
2024-02-19T05:31:19.868Z,2.47
2024-02-19T05:34:21.665Z,2.20
2024-02-19T05:37:23.387Z,1.93
2024-02-19T05:40:25.189Z,1.87
2024-02-19T05:43:26.817Z,2.07
2024-02-19T05:46:28.786Z,1.70
2024-02-19T05:49:30.545Z,1.80
2024-02-19T05:52:32.137Z,1.73
2024-02-19T05:55:33.716Z,2.20
2024-02-19T05:58:37.522Z,2.00
2024-02-19T06:01:41.623Z,1.90
2024-02-19T06:04:43.475Z,1.40
2024-02-19T06:07:45.247Z,1.73
2024-02-19T06:10:47.000Z,1.63
2024-02-19T06:13:48.682Z,1.50
2024-02-19T06:16:50.303Z,1.60
2024-02-19T06:19:51.866Z,1.67
2024-02-19T06:22:53.469Z,1.60
2024-02-19T06:25:55.083Z,1.40
2024-02-19T06:28:56.657Z,1.33
2024-02-19T06:31:58.301Z,1.27
2024-02-19T06:35:00.046Z,1.00
2024-02-19T06:38:04.968Z,0.97
2024-02-19T06:41:09.081Z,1.27
2024-02-19T06:44:10.635Z,1.07
2024-02-19T06:47:12.255Z,1.00
2024-02-19T06:50:16.533Z,1.07
2024-02-19T06:53:18.082Z,0.97
2024-02-19T06:56:19.633Z,1.20
2024-02-19T06:59:21.195Z,1.00
2024-02-19T07:02:22.744Z,1.10
2024-02-19T07:05:24.575Z,1.00
2024-02-19T07:08:26.346Z,1.30
2024-02-19T07:11:27.972Z,1.30
2024-02-19T07:14:29.588Z,1.33
2024-02-19T07:17:31.385Z,1.50
2024-02-19T07:20:35.230Z,1.33
2024-02-19T07:23:36.812Z,1.10
2024-02-19T07:26:38.392Z,1.30
2024-02-19T07:29:39.914Z,1.40
2024-02-19T07:32:41.592Z,1.40
2024-02-19T07:35:43.223Z,1.40
2024-02-19T07:38:44.763Z,1.20
2024-02-19T07:41:46.357Z,1.70
2024-02-19T07:44:47.920Z,2.07
2024-02-19T07:47:49.517Z,1.90
2024-02-19T07:50:51.197Z,1.80
2024-02-19T07:53:52.804Z,1.93
2024-02-19T07:56:54.366Z,2.07
2024-02-19T07:59:55.923Z,2.00
2024-02-19T08:02:57.638Z,1.73
2024-02-19T08:05:59.320Z,1.80
2024-02-19T08:09:00.893Z,1.83
2024-02-19T08:12:02.643Z,1.63
2024-02-19T08:15:04.250Z,1.80
2024-02-19T08:18:05.888Z,1.30
2024-02-19T08:21:07.522Z,1.90
2024-02-19T08:24:09.048Z,1.40
2024-02-19T08:27:10.689Z,1.10
2024-02-19T08:30:12.212Z,1.37
2024-02-19T08:33:13.792Z,1.20
2024-02-19T08:36:15.516Z,1.20
2024-02-19T08:39:17.171Z,1.33
2024-02-19T08:42:18.763Z,1.90
2024-02-19T08:45:22.794Z,1.10
2024-02-19T08:48:26.024Z,1.10
2024-02-19T08:51:27.641Z,0.90
2024-02-19T08:54:29.250Z,1.00
2024-02-19T08:57:30.781Z,1.07
2024-02-19T09:00:34.061Z,0.90
2024-02-19T09:03:36.030Z,0.70
2024-02-19T09:06:37.663Z,1.00
2024-02-19T09:09:39.425Z,0.80
2024-02-19T09:12:41.041Z,0.60
2024-02-19T09:15:44.818Z,0.80
2024-02-19T09:18:46.535Z,0.70
2024-02-19T09:21:48.137Z,0.80
2024-02-19T09:24:49.715Z,0.70
2024-02-19T09:27:51.300Z,0.57
2024-02-19T09:30:53.024Z,0.50
2024-02-19T09:33:54.976Z,0.60
2024-02-19T09:36:56.704Z,0.63
2024-02-19T09:39:58.321Z,0.40
2024-02-19T09:43:00.038Z,0.50
2024-02-19T09:46:01.735Z,0.50
2024-02-19T09:49:05.652Z,0.60
2024-02-19T09:52:07.418Z,0.47
2024-02-19T09:55:09.203Z,0.40
2024-02-19T09:58:10.890Z,0.50
2024-02-19T10:01:12.528Z,0.50
2024-02-19T10:04:14.424Z,0.40
2024-02-19T10:07:16.456Z,0.40
2024-02-19T10:10:18.015Z,0.50
2024-02-19T10:13:19.688Z,0.60
2024-02-19T10:16:21.428Z,0.50
2024-02-19T10:19:23.194Z,0.57
2024-02-19T10:22:25.002Z,0.33
2024-02-19T10:25:26.712Z,0.30
2024-02-19T10:28:28.320Z,0.40
2024-02-19T10:31:29.967Z,0.40
2024-02-19T10:34:31.666Z,0.37
2024-02-19T10:37:33.471Z,0.50
2024-02-19T10:40:34.972Z,0.43
2024-02-19T10:43:36.561Z,0.60
2024-02-19T10:46:38.498Z,0.50
2024-02-19T10:49:40.254Z,0.30
2024-02-19T10:52:41.941Z,0.30
2024-02-19T10:55:53.038Z,0.40
2024-02-19T10:58:56.516Z,0.50
2024-02-19T11:01:58.130Z,0.83
2024-02-19T11:04:59.882Z,0.53
2024-02-19T11:08:01.496Z,0.43
2024-02-19T11:11:03.276Z,0.47
2024-02-19T11:14:05.006Z,0.40
2024-02-19T11:17:06.641Z,0.50
2024-02-19T11:20:08.248Z,0.40
2024-02-19T11:23:09.812Z,0.40
2024-02-19T11:26:13.726Z,0.47
2024-02-19T11:29:15.614Z,0.53
2024-02-19T11:32:17.267Z,0.50
2024-02-19T11:35:19.081Z,0.50
2024-02-19T11:38:20.800Z,0.40
2024-02-19T11:41:22.329Z,0.47
2024-02-19T11:44:26.521Z,0.40
2024-02-19T11:47:28.133Z,0.40
2024-02-19T11:50:30.011Z,0.60
2024-02-19T11:53:31.562Z,0.70
2024-02-19T11:56:33.098Z,0.67
2024-02-19T11:59:34.661Z,0.53
2024-02-19T12:02:36.216Z,0.67
2024-02-19T12:05:38.019Z,0.60
2024-02-19T12:08:39.629Z,0.40
2024-02-19T12:11:49.893Z,0.60
2024-02-19T12:14:51.515Z,0.40
2024-02-19T12:17:53.597Z,0.50
2024-02-19T12:20:55.440Z,0.73
2024-02-19T12:23:57.014Z,0.50
2024-02-19T12:26:58.622Z,0.50
2024-02-19T12:30:00.230Z,0.40
2024-02-19T12:33:01.906Z,0.50
2024-02-19T12:36:03.689Z,0.40
2024-02-19T12:39:05.294Z,0.50
2024-02-19T12:42:09.561Z,0.50
2024-02-19T12:45:12.390Z,0.80
2024-02-19T12:48:14.092Z,0.50
2024-02-19T12:51:15.681Z,0.50
2024-02-19T12:54:17.322Z,0.50
2024-02-19T12:57:19.155Z,0.53
2024-02-19T13:00:20.737Z,0.50
2024-02-19T13:03:22.258Z,0.60
2024-02-19T13:06:24.055Z,0.50
2024-02-19T13:09:25.686Z,0.50
2024-02-19T13:12:27.332Z,0.90
2024-02-19T13:15:28.924Z,0.73
2024-02-19T13:18:30.668Z,1.00
2024-02-19T13:21:32.333Z,0.77
2024-02-19T13:24:33.875Z,1.30
2024-02-19T13:27:35.693Z,0.80
2024-02-19T13:30:37.252Z,1.10
2024-02-19T13:33:38.822Z,1.00
2024-02-19T13:36:40.424Z,1.20
2024-02-19T13:39:41.994Z,1.20
2024-02-19T13:42:43.664Z,1.10
2024-02-19T13:45:45.290Z,1.00
2024-02-19T13:48:47.061Z,1.33
2024-02-19T13:51:48.898Z,1.23
2024-02-19T13:54:50.627Z,1.40
2024-02-19T13:57:52.454Z,2.43
2024-02-19T14:00:54.117Z,1.50
2024-02-19T14:03:55.916Z,2.10
2024-02-19T14:06:57.678Z,1.90
2024-02-19T14:09:59.314Z,1.83
2024-02-19T14:13:00.890Z,2.17
2024-02-19T14:16:02.525Z,1.97
2024-02-19T14:19:04.348Z,1.80
2024-02-19T14:22:06.099Z,2.13
2024-02-19T14:25:07.746Z,1.83
2024-02-19T14:28:11.786Z,2.10
2024-02-19T14:31:13.451Z,2.00
2024-02-19T14:34:18.080Z,2.57
2024-02-19T14:37:19.755Z,2.07
2024-02-19T14:40:21.446Z,2.00
2024-02-19T14:43:23.125Z,2.33
2024-02-19T14:46:25.144Z,2.30
2024-02-19T14:49:26.875Z,2.00
2024-02-19T14:52:28.485Z,2.57
2024-02-19T14:55:30.272Z,2.33
2024-02-19T14:58:32.049Z,2.03
2024-02-19T15:01:33.705Z,2.17
2024-02-19T15:04:35.390Z,2.10
2024-02-19T15:07:37.299Z,2.20
2024-02-19T15:10:38.980Z,2.07
2024-02-19T15:13:40.635Z,2.13
2024-02-19T15:16:42.229Z,2.30
2024-02-19T15:19:43.975Z,2.83
2024-02-19T15:22:45.728Z,2.00
2024-02-19T15:25:47.333Z,2.30
2024-02-19T15:28:48.976Z,2.17
2024-02-19T15:31:50.557Z,2.27
2024-02-19T15:34:52.227Z,2.50
2024-02-19T15:37:53.836Z,2.37
2024-02-19T15:40:55.362Z,2.40
2024-02-19T15:43:56.903Z,2.53
2024-02-19T15:46:58.593Z,2.27
2024-02-19T15:50:00.277Z,2.60
2024-02-19T15:53:05.993Z,2.60
2024-02-19T15:56:08.364Z,2.50
2024-02-19T15:59:09.900Z,2.40
2024-02-19T16:02:11.539Z,2.60
2024-02-19T16:05:13.194Z,2.43
2024-02-19T16:08:15.036Z,2.43
2024-02-19T16:11:16.809Z,2.60
2024-02-19T16:14:18.360Z,2.53
2024-02-19T16:17:19.905Z,2.30
2024-02-19T16:20:21.514Z,2.30
2024-02-19T16:23:23.138Z,2.10
2024-02-19T16:26:24.710Z,2.20
2024-02-19T16:29:26.250Z,1.97
2024-02-19T16:32:27.808Z,2.10
2024-02-19T16:35:29.580Z,2.20
2024-02-19T16:38:31.185Z,2.40
2024-02-19T16:41:32.801Z,2.70
2024-02-19T16:44:34.376Z,2.20
2024-02-19T16:47:35.945Z,2.50
2024-02-19T16:50:37.629Z,2.60
2024-02-19T16:53:39.248Z,2.03
2024-02-19T16:56:40.826Z,2.20
2024-02-19T16:59:42.344Z,2.17
2024-02-19T17:02:43.959Z,2.57
2024-02-19T17:05:45.700Z,2.13
2024-02-19T17:08:47.420Z,2.00
2024-02-19T17:11:49.046Z,2.27
2024-02-19T17:14:50.582Z,2.20
2024-02-19T17:17:52.315Z,2.60
2024-02-19T17:20:53.931Z,2.57
2024-02-19T17:23:55.483Z,2.60
2024-02-19T17:26:57.224Z,2.43
2024-02-19T17:29:58.820Z,2.70
2024-02-19T17:33:00.735Z,2.50
2024-02-19T17:36:02.332Z,2.80
2024-02-19T17:39:03.927Z,2.60
2024-02-19T17:42:05.486Z,3.20
2024-02-19T17:45:07.016Z,2.90
2024-02-19T17:48:11.344Z,3.33
2024-02-19T17:51:17.981Z,3.37
2024-02-19T17:54:19.548Z,3.00
2024-02-19T17:57:21.069Z,3.10
2024-02-19T18:00:22.620Z,3.20
2024-02-19T18:03:24.318Z,3.73
2024-02-19T18:06:25.931Z,3.93
2024-02-19T18:09:27.577Z,3.70
2024-02-19T18:12:29.284Z,4.10
2024-02-19T18:15:30.876Z,3.83
2024-02-19T18:18:32.492Z,4.00
2024-02-19T18:21:34.117Z,4.43
2024-02-19T18:24:35.682Z,4.10
2024-02-19T18:27:37.273Z,4.63
2024-02-19T18:30:38.877Z,4.43
2024-02-19T18:33:40.427Z,4.17
2024-02-19T18:36:42.207Z,4.20
2024-02-19T18:39:43.850Z,4.43
2024-02-19T18:42:45.498Z,4.93
2024-02-19T18:45:50.191Z,5.13
2024-02-19T18:48:51.893Z,5.23
2024-02-19T18:51:53.701Z,4.60
2024-02-19T18:54:55.346Z,4.77
2024-02-19T18:57:57.053Z,5.00
2024-02-19T19:00:58.817Z,4.70
2024-02-19T19:04:00.832Z,4.73
2024-02-19T19:07:02.583Z,5.13
2024-02-19T19:10:04.234Z,5.20
2024-02-19T19:13:05.846Z,5.70
2024-02-19T19:16:07.499Z,6.57
2024-02-19T19:19:09.206Z,5.27
2024-02-19T19:22:10.860Z,4.90
2024-02-19T19:25:12.576Z,6.20
2024-02-19T19:28:14.144Z,6.47
2024-02-19T19:31:15.796Z,5.00
2024-02-19T19:34:17.402Z,5.47
2024-02-19T19:37:19.161Z,5.73
2024-02-19T19:40:20.883Z,5.40
2024-02-19T19:43:22.549Z,5.67
2024-02-19T19:46:24.149Z,5.63
2024-02-19T19:49:25.909Z,5.77
2024-02-19T19:52:27.679Z,5.40
2024-02-19T19:55:29.242Z,5.30
2024-02-19T19:58:32.835Z,5.60
2024-02-19T20:01:35.413Z,5.57
2024-02-19T20:04:37.073Z,6.00
2024-02-19T20:07:38.692Z,5.43
2024-02-19T20:10:40.391Z,5.93
2024-02-19T20:13:42.111Z,6.07
2024-02-19T20:16:43.753Z,5.67
2024-02-19T20:19:45.589Z,5.70
2024-02-19T20:22:47.225Z,5.50
2024-02-19T20:25:48.803Z,5.90
2024-02-19T20:28:50.373Z,5.87
2024-02-19T20:31:51.960Z,5.73
2024-02-19T20:34:53.540Z,5.43
2024-02-19T20:37:55.105Z,5.43
2024-02-19T20:40:56.947Z,4.73
2024-02-19T20:43:58.480Z,5.90
2024-02-19T20:47:00.034Z,5.57
2024-02-19T20:50:01.990Z,5.90
2024-02-19T20:53:03.789Z,5.60
2024-02-19T20:56:05.348Z,5.47
2024-02-19T20:59:07.133Z,5.43
2024-02-19T21:02:08.732Z,5.53
2024-02-19T21:05:10.352Z,5.90
2024-02-19T21:08:12.039Z,5.70
2024-02-19T21:11:13.682Z,5.33
2024-02-19T21:14:15.329Z,5.43
2024-02-19T21:17:16.933Z,5.23
2024-02-19T21:20:19.008Z,5.07
2024-02-19T21:23:20.830Z,4.60
2024-02-19T21:26:22.606Z,4.53
2024-02-19T21:29:24.207Z,4.67
2024-02-19T21:32:25.716Z,4.97
2024-02-19T21:35:27.487Z,4.80
2024-02-19T21:38:29.167Z,4.07
2024-02-19T21:41:30.757Z,3.57
2024-02-19T21:44:32.350Z,3.80
2024-02-19T21:47:33.927Z,4.37
2024-02-19T21:50:36.633Z,4.20
2024-02-19T21:53:38.224Z,4.10
2024-02-19T21:56:39.759Z,3.67
2024-02-19T21:59:41.300Z,3.77
2024-02-19T22:02:43.023Z,3.67
2024-02-19T22:05:44.787Z,3.30
2024-02-19T22:08:46.360Z,3.73
2024-02-19T22:11:50.174Z,3.30
2024-02-19T22:14:51.861Z,3.60
2024-02-19T22:17:53.546Z,3.40
2024-02-19T22:20:55.203Z,3.73
2024-02-19T22:23:56.774Z,3.27
2024-02-19T22:26:58.806Z,3.07
2024-02-19T22:30:00.351Z,3.80
2024-02-19T22:33:01.971Z,3.67
2024-02-19T22:36:03.718Z,3.03
2024-02-19T22:39:05.333Z,3.10
2024-02-19T22:42:06.929Z,2.70
2024-02-19T22:45:08.637Z,2.83
2024-02-19T22:48:10.416Z,2.70
2024-02-19T22:51:12.328Z,2.50
2024-02-19T22:54:14.022Z,2.47
2024-02-19T22:57:15.635Z,2.70
2024-02-19T23:00:17.201Z,2.60
2024-02-19T23:03:18.907Z,2.30
2024-02-19T23:06:20.597Z,2.50
2024-02-19T23:09:22.194Z,2.20
2024-02-19T23:12:24.076Z,1.90
2024-02-19T23:15:25.941Z,2.23
2024-02-19T23:18:27.880Z,2.40
2024-02-19T23:21:29.494Z,1.90
2024-02-19T23:24:31.065Z,1.83
2024-02-19T23:27:32.616Z,2.07
2024-02-19T23:30:34.220Z,1.93
2024-02-19T23:33:35.911Z,2.10
2024-02-19T23:36:37.482Z,2.13
2024-02-19T23:39:39.054Z,1.93
2024-02-19T23:42:40.650Z,2.03
2024-02-19T23:45:42.253Z,2.20
2024-02-19T23:48:43.959Z,2.17
2024-02-19T23:51:45.580Z,1.80
2024-02-19T23:54:47.181Z,2.23
2024-02-19T23:57:48.789Z,2.00
